Time;durP1;ratioP1;P1;durP2;ratioP2;P2;SDS_P1;SDS_P2;PMS_P1;PMS_P2;Temp;Humidity;BMP_temperature;BMP_pressure;BME280_temperature;BME280_humidity;BME280_pressure;Samples;Min_cycle;Max_cycle;Signal;HPM_P1;HPM_P2
2022/01/02 00:00:29;;;;;;;0.20;0.20;;;;;;;19.76;44.78;101458.84;5128311;28;20047;-33
2022/01/02 00:03:02;;;;;;;0.20;0.20;;;;;;;19.75;44.81;101471.00;5112099;28;20039;-34
2022/01/02 00:05:30;;;;;;;0.20;0.20;;;;;;;19.76;45.07;101465.19;5131015;28;20160;-34
2022/01/02 00:08:01;;;;;;;0.20;0.20;;;;;;;19.75;44.76;101448.88;5129966;28;20039;-34
2022/01/02 00:10:31;;;;;;;0.20;0.20;;;;;;;19.76;44.84;101445.84;5129737;28;20039;-34
2022/01/02 00:12:58;;;;;;;0.20;0.20;;;;;;;19.75;44.80;101452.47;5128867;28;20035;-35
2022/01/02 00:15:24;;;;;;;0.10;0.10;;;;;;;19.76;44.88;101456.91;5129399;27;20047;-34
2022/01/02 00:17:51;;;;;;;0.20;0.20;;;;;;;19.76;44.73;101465.19;5111715;28;20099;-34
2022/01/02 00:20:35;;;;;;;0.20;0.20;;;;;;;19.75;44.80;101466.31;5129052;28;20035;-34
2022/01/02 00:23:06;;;;;;;0.20;0.20;;;;;;;19.75;44.97;101463.53;5108284;28;20070;-34
2022/01/02 00:25:37;;;;;;;0.20;0.20;;;;;;;19.75;45.18;101455.25;5112835;28;20043;-34
2022/01/02 00:28:02;;;;;;;0.13;0.13;;;;;;;19.76;45.09;101461.59;5126867;28;20039;-34
2022/01/02 00:30:39;;;;;;;0.20;0.20;;;;;;;19.76;45.14;101464.38;5125555;28;20093;-34
2022/01/02 00:33:05;;;;;;;0.20;0.20;;;;;;;19.77;44.90;101454.97;5110350;28;20413;-34
2022/01/02 00:35:31;;;;;;;0.10;0.10;;;;;;;19.77;45.10;101466.00;5128901;28;20043;-35
2022/01/02 00:37:57;;;;;;;0.20;0.20;;;;;;;19.76;45.06;101465.19;5128175;28;20047;-34
2022/01/02 00:40:23;;;;;;;0.20;0.20;;;;;;;19.76;45.09;101459.66;5124651;28;20046;-34
2022/01/02 00:42:55;;;;;;;0.10;0.10;;;;;;;19.75;44.84;101458.00;5130221;28;20039;-34
2022/01/02 00:45:28;;;;;;;0.20;0.20;;;;;;;19.77;44.91;101468.78;5093636;28;20046;-34
2022/01/02 00:50:37;;;;;;;0.20;0.20;;;;;;;19.77;44.83;101482.59;5159766;27;20206;-34
2022/01/02 00:53:04;;;;;;;0.20;0.20;;;;;;;19.77;45.16;101479.84;5137067;27;20043;-35
2022/01/02 00:55:33;;;;;;;0.20;0.20;;;;;;;19.76;45.06;101467.13;5159129;27;20437;-36
2022/01/02 00:58:00;;;;;;;0.10;0.10;;;;;;;19.77;45.09;101466.00;5137890;27;20043;-35
2022/01/02 01:00:27;;;;;;;0.20;0.20;;;;;;;19.77;45.07;101463.25;5160939;27;20077;-34
2022/01/02 01:02:55;;;;;;;0.20;0.20;;;;;;;19.77;45.12;101468.78;5140513;27;20043;-34
2022/01/02 01:05:29;;;;;;;;;;;;;;;19.76;45.16;101470.72;5159215;27;20057;-34
2022/01/02 01:07:57;;;;;;;0.20;0.20;;;;;;;19.76;45.10;101462.44;5139662;27;19919;-34
2022/01/02 01:10:25;;;;;;;0.20;0.20;;;;;;;19.76;44.87;101472.66;5160292;27;20047;-34
2022/01/02 01:12:53;;;;;;;0.10;0.10;;;;;;;19.76;45.09;101467.13;5141563;27;20499;-35
2022/01/02 01:15:21;;;;;;;0.20;0.20;;;;;;;19.76;44.92;101467.97;5141907;27;20097;-34
2022/01/02 01:17:47;;;;;;;0.20;0.20;;;;;;;19.77;45.18;101468.78;5126643;27;20048;-33
2022/01/02 01:20:14;;;;;;;0.20;0.20;;;;;;;19.77;45.21;101469.63;5162085;27;20658;-34
2022/01/02 01:22:41;;;;;;;0.20;0.20;;;;;;;19.77;44.74;101461.34;5127250;27;20395;-34
2022/01/02 01:25:12;;;;;;;0.20;0.20;;;;;;;19.77;44.84;101474.31;5140479;27;20047;-33
2022/01/02 01:27:39;;;;;;;0.20;0.20;;;;;;;19.77;44.99;101477.94;5122120;27;20338;-34
2022/01/02 01:30:06;;;;;;;0.20;0.20;;;;;;;19.77;45.04;101483.47;5158185;27;20047;-37
2022/01/02 01:32:32;;;;;;;0.20;0.20;;;;;;;19.77;45.01;101477.06;5161517;27;20050;-33
2022/01/02 01:34:57;;;;;;;0.20;0.20;;;;;;;19.75;44.78;101471.81;5159693;27;20039;-33
2022/01/02 01:37:23;;;;;;;0.20;0.20;;;;;;;19.77;44.82;101474.31;5162434;27;20087;-34
2022/01/02 01:39:49;;;;;;;0.20;0.20;;;;;;;19.77;44.94;101466.88;5142000;27;20063;-33
2022/01/02 01:42:14;;;;;;;0.20;0.20;;;;;;;19.78;45.04;101464.94;5162024;27;20123;-34
2022/01/02 01:45:04;;;;;;;0.20;0.20;;;;;;;19.77;44.96;101464.13;5160592;27;20038;-33
2022/01/02 01:47:26;;;;;;;0.20;0.20;;;;;;;19.79;44.90;101455.53;5143521;27;20513;-34
2022/01/02 01:49:51;;;;;;;0.20;0.20;;;;;;;19.77;45.03;101452.19;5156031;27;20047;-35
2022/01/02 01:52:17;;;;;;;0.20;0.20;;;;;;;19.76;44.93;101445.03;5157143;27;20043;-35
2022/01/02 01:54:43;;;;;;;0.20;0.20;;;;;;;19.77;45.06;101439.25;5159947;27;20423;-34
2022/01/02 01:57:08;;;;;;;0.20;0.20;;;;;;;19.77;44.99;101438.38;5160449;27;20046;-33
2022/01/02 01:59:34;;;;;;;0.20;0.20;;;;;;;19.78;44.83;101420.72;5158604;27;20054;-34
2022/01/02 02:02:00;;;;;;;0.10;0.10;;;;;;;19.76;45.21;101432.03;5141529;27;20058;-34
2022/01/02 02:04:28;;;;;;;0.20;0.20;;;;;;;19.77;45.04;101430.09;5143039;27;20054;-35
2022/01/02 02:06:54;;;;;;;0.20;0.20;;;;;;;19.77;44.81;101432.84;5144747;27;20043;-34
2022/01/02 02:09:23;;;;;;;0.20;0.20;;;;;;;19.76;45.24;101440.31;5148141;27;20045;-35
2022/01/02 02:11:49;;;;;;;0.20;0.20;;;;;;;19.78;45.14;101453.88;5143878;27;20046;-35
2022/01/02 02:14:15;;;;;;;0.20;0.20;;;;;;;19.77;45.00;101444.75;5143897;27;20091;-36
2022/01/02 02:16:41;;;;;;;0.10;0.10;;;;;;;19.77;44.86;101442.00;5146915;27;20103;-34
2022/01/02 02:19:06;;;;;;;0.20;0.20;;;;;;;19.77;44.89;101438.38;5135267;27;20043;-34
2022/01/02 02:21:35;;;;;;;0.10;0.10;;;;;;;19.77;45.12;101441.16;5128627;27;20091;-35
2022/01/02 02:24:04;;;;;;;0.20;0.20;;;;;;;19.77;44.95;101444.75;5103223;28;20043;-34
2022/01/02 02:26:32;;;;;;;0.20;0.20;;;;;;;19.77;45.03;101439.25;5113525;27;20304;-34
2022/01/02 02:28:58;;;;;;;;;;;;;;;19.77;44.88;101436.47;5113618;27;20122;-34
2022/01/02 02:31:24;;;;;;;0.17;0.17;;;;;;;19.77;44.88;101428.19;5125129;27;19923;-36
2022/01/02 02:33:50;;;;;;;0.20;0.20;;;;;;;19.76;45.17;101415.44;5112755;27;20039;-34
2022/01/02 02:36:15;;;;;;;0.20;0.20;;;;;;;19.77;44.89;101395.03;5125115;27;20558;-34
2022/01/02 02:38:42;;;;;;;0.20;0.20;;;;;;;19.77;45.09;101395.03;5132798;27;20053;-36
2022/01/02 02:41:07;;;;;;;0.20;0.20;;;;;;;19.79;44.89;101405.78;5116280;27;20043;-33
2022/01/02 02:43:43;;;;;;;0.20;0.20;;;;;;;19.77;45.08;101392.25;5135029;27;20078;-36
2022/01/02 02:49:05;;;;;;;0.20;0.20;;;;;;;19.76;45.10;101357.41;5114976;27;20042;-34
2022/01/02 02:54:21;;;;;;;0.20;0.20;;;;;;;19.77;44.98;101366.53;5159693;27;20116;-33
2022/01/02 02:57:11;;;;;;;0.20;0.20;;;;;;;19.77;44.89;101364.63;5129137;27;20045;-34
2022/01/02 02:59:35;;;;;;;0.20;0.20;;;;;;;19.77;44.75;101348.03;5116851;27;20070;-34
2022/01/02 03:02:01;;;;;;;0.20;0.20;;;;;;;19.78;45.08;101366.28;5146140;27;20046;-33
2022/01/02 03:04:27;;;;;;;0.20;0.20;;;;;;;19.80;44.90;101368.75;5144877;27;20050;-34
2022/01/02 03:06:53;;;;;;;0.20;0.20;;;;;;;19.78;45.13;101362.69;5130141;27;20050;-33
2022/01/02 03:09:37;;;;;;;0.20;0.20;;;;;;;19.78;44.91;101370.97;5134013;27;20062;-34
2022/01/02 03:12:04;;;;;;;0.20;0.20;;;;;;;19.78;44.91;101377.31;5147068;27;20480;-34
2022/01/02 03:14:32;;;;;;;0.20;0.20;;;;;;;19.78;45.04;101371.81;5143122;27;20411;-35
2022/01/02 03:16:58;;;;;;;0.20;0.20;;;;;;;19.78;45.10;101369.03;5144276;27;20047;-34
2022/01/02 03:19:24;;;;;;;0.20;0.20;;;;;;;19.77;45.23;101348.03;5147361;27;20065;-33
2022/01/02 03:21:50;;;;;;;0.13;0.13;;;;;;;19.78;45.03;101357.97;5148449;27;20044;-36
2022/01/02 03:24:16;;;;;;;0.20;0.20;;;;;;;19.78;44.91;101348.88;5145913;27;20385;-38
2022/01/02 03:26:41;;;;;;;0.20;0.20;;;;;;;19.78;45.03;101351.63;5145037;27;20065;-34
2022/01/02 03:29:07;;;;;;;0.20;0.20;;;;;;;19.78;45.02;101357.97;5145537;27;20103;-34
2022/01/02 03:31:33;;;;;;;0.20;0.20;;;;;;;19.78;45.22;101369.03;5111978;27;20123;-33
2022/01/02 03:33:58;;;;;;;0.20;0.20;;;;;;;19.78;45.11;101369.03;5150481;27;20043;-34
2022/01/02 03:36:24;;;;;;;0.20;0.20;;;;;;;19.78;44.86;101365.44;5148697;27;20095;-34
2022/01/02 03:38:50;;;;;;;0.20;0.20;;;;;;;19.77;44.88;101350.81;5151493;27;20053;-34
2022/01/02 03:41:15;;;;;;;0.20;0.20;;;;;;;19.79;45.25;101342.22;5148714;27;20058;-34
2022/01/02 03:43:41;;;;;;;0.20;0.20;;;;;;;19.77;44.91;101331.47;5146825;27;20453;-34
2022/01/02 03:46:07;;;;;;;0.20;0.20;;;;;;;19.78;45.24;101329.53;5128312;27;20043;-34
2022/01/02 03:48:33;;;;;;;0.20;0.20;;;;;;;19.78;45.03;101322.06;5144157;27;20053;-34
2022/01/02 03:51:03;;;;;;;0.20;0.20;;;;;;;19.79;44.90;101320.13;5127354;27;20082;-35
2022/01/02 03:53:29;;;;;;;0.20;0.20;;;;;;;19.78;45.24;101308.25;5144853;27;20095;-34
2022/01/02 03:55:55;;;;;;;0.20;0.20;;;;;;;19.78;45.05;101310.19;5146398;27;20035;-34
2022/01/02 03:58:20;;;;;;;0.20;0.20;;;;;;;19.79;44.92;101303.53;5145103;27;20075;-37
2022/01/02 04:00:46;;;;;;;0.20;0.20;;;;;;;19.79;45.03;101309.88;5148282;27;20042;-33
2022/01/02 04:03:12;;;;;;;0.20;0.20;;;;;;;19.78;45.16;101313.75;5145082;27;20430;-34
2022/01/02 04:05:38;;;;;;;0.20;0.20;;;;;;;19.78;45.00;101297.19;5133420;27;20075;-34
2022/01/02 04:08:05;;;;;;;0.20;0.20;;;;;;;19.78;45.33;101302.72;5117433;27;20043;-33
2022/01/02 04:10:30;;;;;;;0.10;0.10;;;;;;;19.78;45.22;101299.94;5133976;27;20405;-35
2022/01/02 04:12:56;;;;;;;0.20;0.20;;;;;;;19.78;45.02;101291.66;5112252;27;20512;-34
2022/01/02 04:15:21;;;;;;;0.20;0.20;;;;;;;19.78;44.97;101293.59;5132054;27;20039;-33
2022/01/02 04:17:47;;;;;;;0.20;0.20;;;;;;;19.78;45.22;101296.34;5129831;27;20127;-34
2022/01/02 04:20:15;;;;;;;0.20;0.20;;;;;;;19.79;45.35;101298.84;5131001;27;20089;-34
2022/01/02 04:22:40;;;;;;;0.20;0.20;;;;;;;19.79;45.02;101300.78;5134352;27;20072;-33
2022/01/02 04:25:07;;;;;;;0.20;0.20;;;;;;;19.79;45.19;101300.78;5115397;27;20055;-34
2022/01/02 04:27:32;;;;;;;0.20;0.20;;;;;;;19.80;45.18;101300.47;5104373;27;20136;-34
2022/01/02 04:29:58;;;;;;;0.20;0.20;;;;;;;19.79;44.93;101300.78;5118789;27;20473;-35
2022/01/02 04:32:24;;;;;;;0.20;0.20;;;;;;;19.78;45.20;101305.47;5132082;27;20039;-34
2022/01/02 04:34:50;;;;;;;0.20;0.20;;;;;;;19.79;45.13;101298.00;5128995;27;20039;-34
2022/01/02 04:37:15;;;;;;;0.20;0.20;;;;;;;19.80;45.04;101291.38;5117109;28;20078;-34
2022/01/02 04:39:41;;;;;;;0.20;0.20;;;;;;;19.79;45.08;101286.94;5129181;27;20058;-34
2022/01/02 04:42:08;;;;;;;0.20;0.20;;;;;;;19.79;45.10;101298.00;5136881;27;20047;-34
2022/01/02 04:44:33;;;;;;;0.20;0.20;;;;;;;19.80;44.96;101302.41;5129451;27;20095;-34
2022/01/02 04:46:59;;;;;;;0.20;0.20;;;;;;;19.79;45.11;101292.47;5117108;28;20039;-34
2022/01/02 04:49:25;;;;;;;0.20;0.20;;;;;;;19.78;44.99;101283.38;5136774;27;20047;-34
2022/01/02 04:51:53;;;;;;;0.20;0.20;;;;;;;19.79;45.05;101278.66;5128426;27;20061;-34
2022/01/02 04:54:20;;;;;;;0.10;0.10;;;;;;;19.79;45.10;101273.13;5125966;27;20095;-35
2022/01/02 04:56:45;;;;;;;0.20;0.20;;;;;;;19.79;44.93;101259.31;5113800;28;20037;-37
2022/01/02 04:59:11;;;;;;;0.20;0.20;;;;;;;19.79;45.11;101248.25;5130819;27;20039;-35
2022/01/02 05:01:37;;;;;;;0.20;0.20;;;;;;;19.80;45.33;101249.91;5128893;27;20342;-34
2022/01/02 05:04:03;;;;;;;0.20;0.20;;;;;;;19.78;44.96;101247.44;5132591;27;20082;-34
2022/01/02 05:06:29;;;;;;;0.20;0.20;;;;;;;19.80;45.15;101238.84;5129909;27;20051;-34
2022/01/02 05:08:54;;;;;;;0.20;0.20;;;;;;;19.80;44.80;101225.03;5131862;27;20052;-34
2022/01/02 05:11:20;;;;;;;0.20;0.20;;;;;;;19.80;45.10;101227.81;5129546;27;20043;-34
2022/01/02 05:13:46;;;;;;;0.13;0.13;;;;;;;19.79;45.24;101217.88;5124295;27;20043;-36
2022/01/02 05:16:12;;;;;;;0.20;0.20;;;;;;;19.79;45.03;101210.41;5126452;27;20061;-35
2022/01/02 05:18:37;;;;;;;0.20;0.20;;;;;;;19.79;45.06;101221.44;5118372;27;20546;-34
2022/01/02 05:21:03;;;;;;;0.13;0.13;;;;;;;19.79;45.20;101215.94;5120615;28;20065;-34
2022/01/02 05:23:29;;;;;;;0.10;0.10;;;;;;;19.80;45.18;101211.22;5121540;27;20063;-34
2022/01/02 05:25:56;;;;;;;0.20;0.20;;;;;;;19.79;45.07;101210.41;5114034;27;20061;-34
2022/01/02 05:28:23;;;;;;;0.10;0.10;;;;;;;19.79;45.15;101209.56;5114586;27;20047;-34
2022/01/02 05:30:49;;;;;;;0.10;0.10;;;;;;;19.80;45.04;101206.53;5132843;27;20043;-35
2022/01/02 05:33:14;;;;;;;0.20;0.20;;;;;;;19.78;44.82;101200.47;5128287;27;20378;-34
2022/01/02 05:35:40;;;;;;;0.20;0.20;;;;;;;19.79;44.89;101204.03;5126919;27;20069;-34
2022/01/02 05:38:06;;;;;;;0.20;0.20;;;;;;;19.79;45.02;101213.16;5129228;27;20046;-35
2022/01/02 05:40:32;;;;;;;0.10;0.10;;;;;;;19.80;45.21;101197.41;5127598;27;20039;-34
2022/01/02 05:43:01;;;;;;;0.10;0.10;;;;;;;19.79;45.07;101174.47;5113238;27;20083;-34
2022/01/02 05:45:27;;;;;;;0.10;0.10;;;;;;;19.80;44.99;101180.81;5095700;27;20035;-34
2022/01/02 05:47:52;;;;;;;0.20;0.20;;;;;;;19.80;44.85;101183.59;5113459;27;20355;-34
2022/01/02 05:50:18;;;;;;;0.20;0.20;;;;;;;19.80;44.88;101194.63;5121890;27;20108;-34
2022/01/02 05:52:44;;;;;;;0.20;0.20;;;;;;;19.80;45.18;101194.63;5128269;27;20100;-37
2022/01/02 05:55:10;;;;;;;0.17;0.17;;;;;;;19.80;44.87;101186.34;5132041;27;20046;-34
2022/01/02 05:57:35;;;;;;;0.20;0.20;;;;;;;19.79;45.01;101174.47;5114219;27;20042;-33
2022/01/02 06:00:04;;;;;;;0.10;0.10;;;;;;;19.80;44.80;101172.53;5129303;27;20049;-34
2022/01/02 06:02:31;;;;;;;0.10;0.10;;;;;;;19.80;45.21;101169.78;5114268;27;20051;-34
2022/01/02 06:04:57;;;;;;;0.10;0.10;;;;;;;19.79;44.80;101141.31;5132980;27;20046;-34
2022/01/02 06:07:23;;;;;;;0.20;0.20;;;;;;;19.79;44.86;101130.25;5101078;27;20088;-34
2022/01/02 06:09:49;;;;;;;0.10;0.10;;;;;;;19.80;44.68;101131.06;5133715;27;20039;-34
2022/01/02 06:12:15;;;;;;;0.20;0.20;;;;;;;19.80;45.16;101125.56;5131315;27;20101;-34
2022/01/02 06:14:40;;;;;;;0.20;0.20;;;;;;;19.80;44.89;101142.13;5109722;27;20046;-34
2022/01/02 06:17:06;;;;;;;0.20;0.20;;;;;;;19.81;45.06;101143.78;5128439;27;20050;-38
2022/01/02 06:19:32;;;;;;;0.20;0.20;;;;;;;19.79;45.05;101141.31;5123902;27;20059;-34
2022/01/02 06:21:58;;;;;;;0.20;0.20;;;;;;;19.79;44.93;101141.31;5125621;27;20256;-34
2022/01/02 06:24:23;;;;;;;0.20;0.20;;;;;;;19.79;45.06;101140.47;5126540;27;20059;-34
2022/01/02 06:26:49;;;;;;;0.20;0.20;;;;;;;19.79;45.03;101135.78;5134571;27;20035;-34
2022/01/02 06:29:15;;;;;;;0.20;0.20;;;;;;;19.79;45.01;101130.25;5113923;27;20047;-34
2022/01/02 06:31:40;;;;;;;0.20;0.20;;;;;;;19.79;45.12;101130.25;5136830;27;20043;-34
2022/01/02 06:34:06;;;;;;;0.10;0.10;;;;;;;19.79;45.02;101126.66;5129959;27;20039;-34
2022/01/02 06:36:32;;;;;;;0.20;0.20;;;;;;;19.80;44.88;101122.78;5131452;27;20043;-35
2022/01/02 06:38:57;;;;;;;0.10;0.10;;;;;;;19.78;44.89;101112.03;5128095;27;20093;-34
2022/01/02 06:41:23;;;;;;;0.20;0.20;;;;;;;19.79;44.90;101090.75;5129191;27;20497;-34
2022/01/02 06:43:52;;;;;;;0.20;0.20;;;;;;;19.78;44.98;101089.91;5127670;27;20050;-34
2022/01/02 06:46:18;;;;;;;0.20;0.20;;;;;;;19.79;44.86;101091.56;5127901;27;20035;-39
2022/01/02 06:48:45;;;;;;;0.20;0.20;;;;;;;19.79;44.94;101074.16;5129051;27;20035;-34
2022/01/02 06:51:10;;;;;;;0.13;0.13;;;;;;;19.79;44.86;101063.94;5131749;27;20057;-34
2022/01/02 06:53:36;;;;;;;0.20;0.20;;;;;;;19.78;44.86;101054.00;5122697;27;20044;-33
2022/01/02 06:56:02;;;;;;;0.20;0.20;;;;;;;19.79;44.81;101055.63;5130387;27;20141;-34
2022/01/02 06:58:27;;;;;;;0.20;0.20;;;;;;;19.78;44.68;101047.66;5114050;27;20051;-34
2022/01/02 07:00:53;;;;;;;0.20;0.20;;;;;;;19.78;44.71;101040.19;5129317;27;20047;-33
2022/01/02 07:03:19;;;;;;;0.20;0.20;;;;;;;19.77;45.12;101035.75;5127521;27;20051;-35
2022/01/02 07:05:44;;;;;;;0.20;0.20;;;;;;;19.78;44.73;101037.41;5131281;27;20098;-34
2022/01/02 07:08:12;;;;;;;0.20;0.20;;;;;;;19.79;44.96;101035.47;5128134;27;20039;-35
2022/01/02 07:10:37;;;;;;;0.20;0.20;;;;;;;19.78;44.70;101029.13;5130540;27;20393;-34
2022/01/02 07:13:03;;;;;;;0.20;0.20;;;;;;;19.77;44.91;101027.47;5131125;27;20474;-34
2022/01/02 07:15:28;;;;;;;0.20;0.20;;;;;;;19.78;44.78;101031.06;5126386;27;20406;-35
2022/01/02 07:17:54;;;;;;;0.20;0.20;;;;;;;19.79;45.05;101043.75;5128133;27;20035;-35
2022/01/02 07:20:20;;;;;;;0.20;0.20;;;;;;;19.78;44.89;101022.78;5128908;27;20047;-34
2022/01/02 07:22:47;;;;;;;0.20;0.20;;;;;;;19.77;44.96;101027.47;5130275;27;20046;-35
2022/01/02 07:25:12;;;;;;;0.20;0.20;;;;;;;19.77;45.05;101026.63;5133899;27;20047;-34
2022/01/02 07:27:38;;;;;;;0.20;0.20;;;;;;;19.77;44.83;101027.47;5127748;27;20039;-34
2022/01/02 07:30:04;;;;;;;0.20;0.20;;;;;;;19.77;45.06;101004.50;5129767;27;20042;-34
2022/01/02 07:32:30;;;;;;;0.20;0.20;;;;;;;19.77;44.75;100997.06;5111835;27;20464;-35
2022/01/02 07:34:56;;;;;;;0.20;0.20;;;;;;;19.78;44.68;100995.13;5131539;27;20035;-34
2022/01/02 07:37:21;;;;;;;0.20;0.20;;;;;;;19.77;44.85;100986.03;5133479;27;20043;-34
2022/01/02 07:39:47;;;;;;;0.10;0.10;;;;;;;19.77;44.66;100971.34;5131291;27;20034;-34
2022/01/02 07:42:13;;;;;;;0.20;0.20;;;;;;;19.77;44.79;100958.41;5133964;27;20497;-35
2022/01/02 07:44:38;;;;;;;0.20;0.20;;;;;;;19.77;45.04;100944.56;5132661;27;20386;-34
2022/01/02 07:47:05;;;;;;;0.20;0.20;;;;;;;19.77;44.63;100928.00;5132905;27;20051;-34
2022/01/02 07:49:31;;;;;;;0.20;0.20;;;;;;;19.77;44.86;100907.78;5131912;27;20061;-36
2022/01/02 07:51:57;;;;;;;0.20;0.20;;;;;;;19.75;44.58;100872.19;5133810;27;20075;-33
2022/01/02 07:54:23;;;;;;;0.20;0.20;;;;;;;19.75;44.85;100880.47;5115762;27;20100;-34
2022/01/02 07:56:49;;;;;;;0.20;0.20;;;;;;;19.76;44.79;100861.94;5128072;27;20046;-34
2022/01/02 07:59:14;;;;;;;0.20;0.20;;;;;;;19.76;44.93;100873.81;5129291;27;20043;-35
2022/01/02 08:01:40;;;;;;;0.20;0.20;;;;;;;19.75;44.66;100874.94;5127544;27;20386;-35
2022/01/02 08:04:06;;;;;;;0.20;0.20;;;;;;;19.75;45.10;100872.19;5133040;27;20088;-34
2022/01/02 08:06:32;;;;;;;0.20;0.20;;;;;;;19.76;44.98;100867.47;5137297;27;20382;-38
2022/01/02 08:08:58;;;;;;;0.20;0.20;;;;;;;19.78;44.80;100860.56;5134186;27;20059;-34
2022/01/02 08:11:23;;;;;;;0.10;0.10;;;;;;;19.76;44.65;100857.25;5131265;27;20036;-35
2022/01/02 08:14:09;;;;;;;0.20;0.20;;;;;;;19.77;44.77;100850.63;5120294;27;20513;-34
2022/01/02 08:16:34;;;;;;;0.20;0.20;;;;;;;19.76;44.97;100860.00;5115990;27;20079;-35
2022/01/02 08:19:01;;;;;;;0.20;0.20;;;;;;;19.76;44.81;100879.34;5129511;27;20045;-34
2022/01/02 08:21:27;;;;;;;0.20;0.20;;;;;;;19.76;44.66;100876.59;5132891;27;20051;-34
2022/01/02 08:23:52;;;;;;;0.20;0.20;;;;;;;19.77;44.84;100860.81;5128713;27;20112;-34
2022/01/02 08:26:20;;;;;;;0.20;0.20;;;;;;;19.76;44.73;100848.13;5134659;27;20467;-35
2022/01/02 08:28:45;;;;;;;0.20;0.20;;;;;;;19.77;44.61;100833.19;5131400;27;20084;-34
2022/01/02 08:31:11;;;;;;;0.20;0.20;;;;;;;19.77;45.03;100844.25;5129923;27;20045;-34
2022/01/02 08:33:37;;;;;;;0.20;0.20;;;;;;;19.77;44.79;100842.34;5122803;27;20054;-34
2022/01/02 08:36:04;;;;;;;0.20;0.20;;;;;;;19.75;44.72;100825.19;5130355;27;20509;-34
2022/01/02 08:38:30;;;;;;;0.20;0.20;;;;;;;19.76;44.65;100834.31;5114238;28;20401;-35
2022/01/02 08:40:55;;;;;;;0.20;0.20;;;;;;;19.76;44.91;100846.19;5129007;27;20039;-34
2022/01/02 08:43:21;;;;;;;0.20;0.20;;;;;;;19.76;44.84;100848.94;5130560;27;20047;-34
2022/01/02 08:45:47;;;;;;;0.20;0.20;;;;;;;19.76;44.73;100865.53;5129227;27;20046;-34
2022/01/02 08:48:13;;;;;;;0.17;0.17;;;;;;;19.77;44.79;100885.69;5126152;27;20282;-37
2022/01/02 08:50:38;;;;;;;0.20;0.20;;;;;;;19.76;44.67;100856.41;5129085;27;20043;-36
2022/01/02 08:53:04;;;;;;;0.20;0.20;;;;;;;19.76;44.78;100862.75;5132253;27;20047;-36
2022/01/02 08:55:30;;;;;;;0.20;0.20;;;;;;;19.77;44.92;100856.16;5133073;27;20062;-34
2022/01/02 08:57:55;;;;;;;0.20;0.20;;;;;;;19.77;44.88;100858.06;5138847;27;20035;-35
2022/01/02 09:00:22;;;;;;;0.20;0.20;;;;;;;19.76;44.66;100862.75;5118574;27;20158;-35
2022/01/02 09:02:48;;;;;;;0.20;0.20;;;;;;;19.77;44.93;100869.13;5115670;27;20043;-34
2022/01/02 09:05:13;;;;;;;0.20;0.20;;;;;;;19.76;44.86;100890.41;5132732;27;20047;-34
2022/01/02 09:07:39;;;;;;;0.20;0.20;;;;;;;19.77;44.71;100881.03;5132462;27;20039;-34
2022/01/02 09:10:05;;;;;;;0.20;0.20;;;;;;;19.76;44.78;100873.81;5128571;27;20458;-34
2022/01/02 09:12:31;;;;;;;0.20;0.20;;;;;;;19.77;44.62;100869.13;5115341;27;20057;-36
2022/01/02 09:14:57;;;;;;;0.20;0.20;;;;;;;19.76;44.96;100879.34;5127919;27;20043;-35
2022/01/02 09:17:22;;;;;;;0.20;0.20;;;;;;;19.76;44.75;100861.94;5130886;27;20454;-34
2022/01/02 09:19:49;;;;;;;0.20;0.20;;;;;;;19.76;44.83;100868.28;5129499;27;20129;-38
2022/01/02 09:22:15;;;;;;;0.20;0.20;;;;;;;19.75;44.78;100869.41;5120393;27;20039;-34
2022/01/02 09:24:40;;;;;;;0.20;0.20;;;;;;;19.75;44.72;100850.06;5131302;27;20050;-34
2022/01/02 09:27:06;;;;;;;0.20;0.20;;;;;;;19.75;44.84;100850.06;5133052;27;20485;-35
2022/01/02 09:29:32;;;;;;;0.20;0.20;;;;;;;19.77;44.81;100874.63;5131686;27;20035;-35
2022/01/02 09:31:59;;;;;;;0.20;0.20;;;;;;;19.76;44.74;100887.63;5128727;27;20484;-34
2022/01/02 09:34:24;;;;;;;0.20;0.20;;;;;;;19.76;44.80;100895.09;5132945;27;20486;-36
2022/01/02 09:36:50;;;;;;;0.20;0.20;;;;;;;19.76;44.90;100897.88;5134794;27;21519;-34
2022/01/02 09:39:16;;;;;;;0.20;0.20;;;;;;;19.76;44.73;100892.34;5124091;27;20093;-34
2022/01/02 09:41:41;;;;;;;0.20;0.20;;;;;;;19.76;44.66;100861.94;5130099;27;20523;-35
2022/01/02 09:44:07;;;;;;;0.20;0.20;;;;;;;19.75;44.85;100839.00;5132674;27;20042;-34
2022/01/02 09:46:33;;;;;;;0.20;0.20;;;;;;;19.77;44.79;100875.50;5130706;27;20086;-34
2022/01/02 09:49:01;;;;;;;0.25;0.25;;;;;;;19.76;44.71;100873.00;5130303;27;20142;-35
2022/01/02 09:51:27;;;;;;;0.20;0.20;;;;;;;19.76;44.64;100901.44;5126080;27;20432;-35
2022/01/02 09:53:55;;;;;;;0.20;0.20;;;;;;;19.76;44.91;100906.97;5111763;27;20043;-34
2022/01/02 09:56:21;;;;;;;0.20;0.20;;;;;;;19.76;44.99;100906.16;5129048;27;20080;-34
2022/01/02 09:58:47;;;;;;;0.20;0.20;;;;;;;19.75;44.84;100899.81;5129543;27;20094;-34
2022/01/02 10:01:18;;;;;;;0.20;0.20;;;;;;;19.75;44.79;100916.38;5115254;28;20050;-34
2022/01/02 10:03:47;;;;;;;0.20;0.20;;;;;;;19.75;44.68;100897.03;5128137;27;20055;-34
2022/01/02 10:06:13;;;;;;;0.20;0.20;;;;;;;19.76;44.75;100904.22;5113631;27;20043;-34
2022/01/02 10:08:39;;;;;;;0.20;0.20;;;;;;;19.77;44.89;100902.28;5111208;28;20549;-34
2022/01/02 10:11:09;;;;;;;0.20;0.20;;;;;;;19.77;44.82;100905.03;5116436;27;20043;-34
2022/01/02 10:13:43;;;;;;;0.20;0.20;;;;;;;19.76;44.81;100906.97;5094640;28;20469;-35
2022/01/02 10:16:31;;;;;;;0.20;0.20;;;;;;;19.76;44.96;100919.97;5113040;27;20453;-34
2022/01/02 10:18:59;;;;;;;0.20;0.20;;;;;;;19.76;45.02;100914.44;5112412;27;20399;-35
2022/01/02 10:24:14;;;;;;;0.20;0.20;;;;;;;19.75;44.90;100907.28;5166565;27;20210;-34
2022/01/02 10:26:41;;;;;;;0.20;0.20;;;;;;;19.76;44.71;100911.69;5149044;27;20141;-35
2022/01/02 10:29:12;;;;;;;0.20;0.20;;;;;;;19.75;44.99;100891.50;5165354;27;20126;-35
2022/01/02 10:31:38;;;;;;;0.20;0.20;;;;;;;19.76;44.90;100897.88;5167996;27;20041;-36
2022/01/02 10:34:04;;;;;;;0.20;0.20;;;;;;;19.75;44.93;100894.28;5164905;27;20050;-34
2022/01/02 10:36:40;;;;;;;0.20;0.20;;;;;;;19.75;45.06;100887.94;5148655;27;20057;-34
2022/01/02 10:39:15;;;;;;;0.20;0.20;;;;;;;19.76;44.86;100884.88;5166772;27;20049;-35
2022/01/02 10:41:43;;;;;;;0.20;0.20;;;;;;;19.76;44.82;100884.03;5134246;27;20050;-34
2022/01/02 10:44:30;;;;;;;0.20;0.20;;;;;;;19.76;45.05;100886.81;5167471;27;20041;-34
2022/01/02 10:47:14;;;;;;;;;;;;;;;19.76;44.86;100884.88;5149093;27;20039;-34
2022/01/02 10:50:05;;;;;;;0.20;0.20;;;;;;;19.74;45.02;100873.28;5168196;27;20287;-34
2022/01/02 10:52:34;;;;;;;0.20;0.20;;;;;;;19.75;44.96;100872.19;5149278;27;20150;-34
2022/01/02 10:55:05;;;;;;;0.20;0.20;;;;;;;19.75;44.74;100880.47;5135454;27;20034;-34
2022/01/02 10:57:32;;;;;;;0.20;0.20;;;;;;;19.75;44.85;100882.41;5164943;27;20042;-34
2022/01/02 10:59:59;;;;;;;0.20;0.20;;;;;;;19.76;44.70;100886.81;5165503;27;20488;-34
2022/01/02 11:02:26;;;;;;;0.20;0.20;;;;;;;19.75;44.74;100893.47;5168106;27;20050;-34
2022/01/02 11:04:59;;;;;;;0.20;0.20;;;;;;;19.75;44.95;100891.50;5146663;27;20035;-35
2022/01/02 11:07:25;;;;;;;0.20;0.20;;;;;;;19.76;44.74;100900.63;5147754;27;20042;-34
2022/01/02 11:09:53;;;;;;;0.20;0.20;;;;;;;19.75;44.71;100910.84;5146133;27;20237;-35
2022/01/02 11:12:25;;;;;;;0.20;0.20;;;;;;;19.75;45.06;100898.97;5146495;27;20049;-34
2022/01/02 11:14:51;;;;;;;0.20;0.20;;;;;;;19.75;44.72;100902.56;5162539;27;20039;-34
2022/01/02 11:17:17;;;;;;;0.20;0.20;;;;;;;19.75;44.80;100902.56;5162558;27;20045;-36
2022/01/02 11:19:43;;;;;;;0.20;0.20;;;;;;;19.74;44.80;100900.91;5160753;27;20047;-36
2022/01/02 11:22:13;;;;;;;0.20;0.20;;;;;;;19.75;44.97;100904.50;5165244;27;20133;-34
2022/01/02 11:24:47;;;;;;;0.20;0.20;;;;;;;19.76;44.92;100889.56;5168446;27;20043;-34
2022/01/02 11:27:20;;;;;;;0.20;0.20;;;;;;;19.75;44.90;100899.81;5147263;27;20050;-35
2022/01/02 11:29:45;;;;;;;0.20;0.20;;;;;;;19.76;44.79;100897.88;5146179;27;20046;-34
2022/01/02 11:32:27;;;;;;;0.20;0.20;;;;;;;19.74;45.00;100895.41;5169509;27;20089;-34
2022/01/02 11:34:53;;;;;;;0.20;0.20;;;;;;;19.74;44.88;100898.16;5153292;27;20095;-35
2022/01/02 11:37:24;;;;;;;0.20;0.20;;;;;;;19.75;45.13;100896.22;5151343;27;20384;-34